CheckWX is a tool to help pilots better visualize weather data.  It is not intended as a substitute for an official pre-flight weather briefing.

11:18:20 UTC

KPSM METAR
Portsmouth International at Pease Airport
Portsmouth, New Hampshire, USA
Current

22 mins ago

KPSM 231056Z 00000KT 10SM FEW250 M09/M11 A3031 RMK AO2A SLP268 T10911112
Observed
Jan-23 @ 10:56 UTC
Visibility
10 SM
Flight Rules
VFR
Cloud Levels
  • Few at 25,000' AGL
Temperature
-9°C / 16°F
Dewpoint
-11°C / 12°F
Humidity
86%
Altimeter
30.31" Hg
Pressure
1026.42 hPa
Previous

1 hour ago

KPSM 230956Z 00000KT 10SM FEW250 M07/M10 A3031 RMK AO2A SLP268 T10741098
Observed
Jan-23 @ 09:56 UTC
Visibility
10 SM
Flight Rules
VFR
Cloud Levels
  • Few at 25,000' AGL
Temperature
-7°C / 19°F
Dewpoint
-10°C / 14°F
Humidity
79%
Altimeter
30.31" Hg
Pressure
1026.42 hPa
Previous

2 hours ago

KPSM 230856Z 22004KT 10SM FEW250 M09/M11 A3032 RMK AO2A SLP271 T10881107 57012
Observed
Jan-23 @ 08:56 UTC
Wind
  • 220° at 4 KTS
Visibility
10 SM
Flight Rules
VFR
Cloud Levels
  • Few at 25,000' AGL
Temperature
-9°C / 16°F
Dewpoint
-11°C / 12°F
Humidity
86%
Altimeter
30.32" Hg
Pressure
1026.72 hPa